General Aviation Weather

Text Reports

Enter one or more of the following location identifiers separated by a space:

Zip Code, Four-Character ICAO or Three-Character IATA airport codes.

METAR - Aviation Routine Weather Report
KPEO - Penn Yan, New York
Updated at 6:53 AM GMT on July 29, 2016 (2:53 AM EDT):
METAR KPEO 290653Z AUTO 17003KT 10SM CLR 19/16 A2992 RMK AO2 SLP122 T01890161 TSNO
TAF - Terminal Area Forecast
KPEO - Penn Yan, New York
Updated at 6:53 AM GMT on July 29, 2016 (2:53 AM EDT):
No TAF is currently available for this location.
Decoded:
No decoded TAF is available.
PIREP - Pilot Weather Report
KPEO - Penn Yan, New York
Updated at 6:53 AM GMT on July 29, 2016 (2:53 AM EDT):
No PIREP is currently available for this location.
AIRMET - Airmens Meteorological Information
KPEO - Penn Yan, New York
Updated at 6:53 AM GMT on July 29, 2016 (2:53 AM EDT):
No AIRMET is currently available for this location.
SIGMET - Significant Meteorological Information
KPEO - Penn Yan, New York
Updated at 6:53 AM GMT on July 29, 2016 (2:53 AM EDT):
No SIGMET is currently available for this location.
NOTAM - Notice to Airmen
KPEO - Penn Yan, New York
Updated at 6:53 AM GMT on July 29, 2016 (2:53 AM EDT):
No NOTAM is currently available for this location.
Forecast Area
KPEO - Penn Yan, New York
Updated at 6:53 AM GMT on July 29, 2016 (2:53 AM EDT):
No NOTAM is currently available for this location.
Aviation Weather Maps